Time;durP1;ratioP1;P1;durP2;ratioP2;P2;SDS_P1;SDS_P2;PMS_P1;PMS_P2;Temp;Humidity;BMP_temperature;BMP_pressure;BME280_temperature;BME280_humidity;BME280_pressure;Samples;Min_cycle;Max_cycle;Signal;HPM_P1;HPM_P2
2021/01/01 00:00:18;;;;;;;25.13;17.40;;;3.40;99.90;;;;;;4991469;28;20563;-48
2021/01/01 00:02:47;;;;;;;25.50;18.07;;;3.40;99.90;;;;;;4995503;28;20589;-48
2021/01/01 00:05:15;;;;;;;25.27;17.23;;;3.40;99.90;;;;;;4996235;28;20886;-47
2021/01/01 00:07:45;;;;;;;29.60;18.37;;;3.50;99.90;;;;;;4997818;28;20513;-48
2021/01/01 00:10:14;;;;;;;27.50;19.53;;;3.50;99.90;;;;;;4994209;28;20484;-48
2021/01/01 00:12:41;;;;;;;26.40;19.70;;;3.50;99.90;;;;;;4996386;28;20510;-47
2021/01/01 00:15:10;;;;;;;27.50;18.27;;;3.40;99.90;;;;;;4997710;28;20502;-47
2021/01/01 00:17:38;;;;;;;26.47;18.90;;;3.40;99.90;;;;;;4997410;28;20484;-47
2021/01/01 00:20:09;;;;;;;26.20;19.03;;;3.30;99.90;;;;;;4996170;28;21366;-47
2021/01/01 00:22:39;;;;;;;24.80;18.20;;;3.30;99.90;;;;;;4995844;28;21683;-48
2021/01/01 00:25:08;;;;;;;24.70;17.37;;;3.30;99.90;;;;;;4997025;28;20546;-48
2021/01/01 00:27:36;;;;;;;26.27;18.40;;;3.30;99.90;;;;;;4997360;28;20480;-48
2021/01/01 00:30:05;;;;;;;27.97;19.93;;;3.30;99.90;;;;;;4995579;28;20481;-47
2021/01/01 00:32:33;;;;;;;27.27;18.20;;;3.40;99.90;;;;;;4996162;28;21019;-48
2021/01/01 00:35:01;;;;;;;27.27;19.87;;;3.40;99.90;;;;;;4997045;28;20555;-48
2021/01/01 00:37:28;;;;;;;31.10;21.33;;;3.30;99.90;;;;;;4995784;28;20504;-48
2021/01/01 00:39:55;;;;;;;24.83;18.43;;;3.30;99.90;;;;;;4994024;28;21018;-47
2021/01/01 00:42:23;;;;;;;26.07;18.03;;;3.40;99.90;;;;;;4994465;28;20600;-49
2021/01/01 00:44:50;;;;;;;27.73;18.07;;;3.40;99.90;;;;;;4997625;28;20872;-47
2021/01/01 00:47:18;;;;;;;28.40;18.43;;;3.40;99.90;;;;;;4996968;28;20563;-47
2021/01/01 00:49:45;;;;;;;28.60;19.17;;;3.30;99.90;;;;;;4996544;28;21069;-48
2021/01/01 00:52:13;;;;;;;29.40;18.70;;;3.50;99.90;;;;;;4995311;28;20794;-48
2021/01/01 00:54:40;;;;;;;27.23;18.27;;;3.40;99.90;;;;;;4996905;28;20491;-48
2021/01/01 00:57:08;;;;;;;28.03;18.63;;;3.40;99.90;;;;;;4995154;28;20565;-47
2021/01/01 00:59:35;;;;;;;27.00;18.47;;;3.40;99.90;;;;;;5007484;28;20507;-47
2021/01/01 01:02:02;;;;;;;29.17;19.67;;;3.40;99.90;;;;;;5007789;28;20476;-47
2021/01/01 01:04:30;;;;;;;27.43;18.67;;;3.40;99.90;;;;;;5007658;28;21028;-47
2021/01/01 01:06:57;;;;;;;27.23;18.77;;;3.40;99.90;;;;;;5008593;28;20491;-47
2021/01/01 01:09:25;;;;;;;27.83;18.30;;;3.30;99.90;;;;;;5008387;28;20597;-47
2021/01/01 01:11:52;;;;;;;26.30;17.53;;;3.30;99.90;;;;;;5005707;28;20930;-48
2021/01/01 01:14:20;;;;;;;26.20;18.53;;;3.20;99.90;;;;;;5004826;28;20983;-47
2021/01/01 01:16:47;;;;;;;25.50;18.63;;;3.20;99.90;;;;;;5006364;28;20556;-47
2021/01/01 01:19:14;;;;;;;25.57;17.73;;;3.20;99.90;;;;;;5005525;28;21095;-48
2021/01/01 01:21:42;;;;;;;29.97;20.07;;;3.20;99.90;;;;;;5021045;28;20472;-48
2021/01/01 01:24:10;;;;;;;31.70;19.83;;;3.20;99.90;;;;;;5025725;28;20502;-47
2021/01/01 01:26:38;;;;;;;28.93;20.07;;;3.30;99.90;;;;;;5025924;28;20479;-49
2021/01/01 01:29:05;;;;;;;28.37;18.77;;;3.20;99.90;;;;;;5020697;28;20499;-47
2021/01/01 01:31:32;;;;;;;30.23;20.30;;;3.20;99.90;;;;;;5008269;28;20516;-48
2021/01/01 01:34:00;;;;;;;28.43;20.20;;;3.30;99.90;;;;;;5009380;28;20976;-48
2021/01/01 01:36:27;;;;;;;32.23;21.03;;;3.30;99.90;;;;;;5008000;28;20481;-48
2021/01/01 01:38:54;;;;;;;33.17;21.57;;;3.30;99.90;;;;;;5009965;28;20492;-47
2021/01/01 01:41:22;;;;;;;34.00;22.23;;;3.30;99.90;;;;;;5008666;28;20567;-48
2021/01/01 01:43:50;;;;;;;33.17;22.43;;;3.40;99.90;;;;;;5025468;28;20509;-47
2021/01/01 01:46:17;;;;;;;34.60;23.70;;;3.30;99.90;;;;;;5029064;28;20508;-47
2021/01/01 01:48:46;;;;;;;35.13;22.57;;;3.40;99.90;;;;;;5023866;28;20528;-48
2021/01/01 01:51:14;;;;;;;33.73;23.50;;;3.30;99.90;;;;;;5010957;28;20583;-47
2021/01/01 01:53:45;;;;;;;36.23;23.53;;;3.40;99.90;;;;;;5007583;28;20569;-48
2021/01/01 01:56:14;;;;;;;36.87;24.70;;;3.40;99.90;;;;;;5008341;28;20487;-47
2021/01/01 01:58:42;;;;;;;36.43;23.93;;;3.40;99.90;;;;;;5007703;28;20480;-47
2021/01/01 02:01:11;;;;;;;36.87;25.03;;;3.40;99.90;;;;;;5007770;28;20561;-47
2021/01/01 02:03:38;;;;;;;39.90;24.07;;;3.50;99.90;;;;;;5007542;28;20992;-47
2021/01/01 02:06:06;;;;;;;37.67;25.27;;;3.40;99.90;;;;;;5008102;28;20500;-47
2021/01/01 02:08:33;;;;;;;41.50;26.57;;;3.50;99.90;;;;;;5007516;28;20504;-47
2021/01/01 02:11:02;;;;;;;36.73;24.30;;;3.50;99.90;;;;;;5007155;28;20937;-48
2021/01/01 02:13:30;;;;;;;36.97;25.10;;;3.40;99.90;;;;;;5007435;28;20552;-47
2021/01/01 02:15:58;;;;;;;38.07;25.23;;;3.40;99.90;;;;;;5010072;28;20500;-47
2021/01/01 02:18:43;;;;;;;40.23;24.47;;;3.40;99.90;;;;;;5007002;28;20488;-47
2021/01/01 02:21:14;;;;;;;35.87;22.70;;;3.50;99.90;;;;;;5007120;28;20468;-48
2021/01/01 02:23:43;;;;;;;43.43;25.13;;;3.50;99.90;;;;;;5009161;28;20514;-48
2021/01/01 02:26:11;;;;;;;42.43;27.83;;;3.60;99.90;;;;;;5008009;28;20555;-47
2021/01/01 02:28:38;;;;;;;40.10;25.80;;;3.50;99.90;;;;;;5006605;28;20481;-48
2021/01/01 02:31:07;;;;;;;42.50;26.63;;;3.50;99.90;;;;;;5007394;28;21043;-47
2021/01/01 02:33:35;;;;;;;39.40;25.33;;;3.40;99.90;;;;;;5007079;28;20470;-48
2021/01/01 02:36:02;;;;;;;41.17;26.30;;;3.50;99.90;;;;;;5005474;28;20559;-48
2021/01/01 02:38:30;;;;;;;38.00;25.27;;;3.50;99.90;;;;;;5010492;28;20589;-47
2021/01/01 02:40:58;;;;;;;39.00;24.97;;;3.40;99.90;;;;;;5023559;28;20485;-47
2021/01/01 02:43:25;;;;;;;37.57;23.60;;;3.40;99.90;;;;;;5027345;28;20900;-47
2021/01/01 02:45:53;;;;;;;39.47;26.80;;;3.60;99.90;;;;;;5027837;28;20568;-47
2021/01/01 02:48:21;;;;;;;36.43;24.70;;;3.50;99.90;;;;;;5027528;28;20568;-48
2021/01/01 02:50:52;;;;;;;39.80;25.83;;;3.60;99.90;;;;;;5006066;28;20539;-48
2021/01/01 02:53:19;;;;;;;36.17;25.40;;;3.50;99.90;;;;;;5008126;28;21048;-48
2021/01/01 02:55:48;;;;;;;39.07;25.83;;;3.50;99.90;;;;;;5007489;28;20488;-48
2021/01/01 02:58:16;;;;;;;35.47;24.60;;;3.60;99.90;;;;;;5007624;28;20532;-47
2021/01/01 03:00:49;;;;;;;36.60;23.97;;;3.50;99.90;;;;;;5007492;28;20506;-47
2021/01/01 03:03:17;;;;;;;39.77;26.73;;;3.60;99.90;;;;;;5007152;28;20477;-47
2021/01/01 03:05:45;;;;;;;37.87;24.63;;;3.70;99.90;;;;;;5007446;28;20496;-48
2021/01/01 03:08:12;;;;;;;40.60;25.73;;;3.70;99.90;;;;;;5007750;28;20565;-49
2021/01/01 03:10:40;;;;;;;36.90;25.73;;;3.50;99.90;;;;;;5007656;28;20889;-47
2021/01/01 03:13:07;;;;;;;38.07;24.43;;;3.40;99.90;;;;;;5007844;28;20497;-47
2021/01/01 03:15:35;;;;;;;40.63;26.10;;;3.60;99.90;;;;;;5007692;28;20485;-47
2021/01/01 03:18:03;;;;;;;45.27;29.63;;;3.80;99.90;;;;;;5008071;28;20472;-48
2021/01/01 03:20:31;;;;;;;38.83;27.57;;;3.70;99.90;;;;;;5007690;28;20828;-48
2021/01/01 03:22:58;;;;;;;41.93;27.47;;;3.60;99.90;;;;;;5007860;28;20557;-47
2021/01/01 03:25:26;;;;;;;37.07;24.83;;;3.60;99.90;;;;;;5007468;28;20889;-48
2021/01/01 03:27:53;;;;;;;41.83;27.37;;;3.80;99.90;;;;;;5009082;28;20967;-48
2021/01/01 03:30:21;;;;;;;40.23;27.77;;;3.60;99.90;;;;;;5008482;28;20574;-48
2021/01/01 03:32:49;;;;;;;37.17;25.57;;;3.50;99.90;;;;;;5001748;28;20481;-48
2021/01/01 03:35:17;;;;;;;40.37;26.00;;;3.70;99.90;;;;;;5017692;28;20509;-48
2021/01/01 03:37:44;;;;;;;49.27;29.70;;;3.80;99.90;;;;;;5021489;28;20530;-48
2021/01/01 03:40:12;;;;;;;47.80;31.47;;;4.00;99.90;;;;;;5031459;28;20623;-48
2021/01/01 03:42:39;;;;;;;42.83;28.53;;;4.10;99.90;;;;;;5030555;28;20515;-48
2021/01/01 03:45:11;;;;;;;46.17;29.47;;;3.90;99.90;;;;;;5031439;28;20471;-48
2021/01/01 03:47:38;;;;;;;43.03;27.33;;;3.90;99.90;;;;;;5012457;28;20473;-47
2021/01/01 03:50:08;;;;;;;44.87;28.03;;;3.90;99.90;;;;;;5012086;28;20534;-48
2021/01/01 03:52:36;;;;;;;46.60;29.53;;;3.70;99.90;;;;;;5011899;28;20482;-48
2021/01/01 03:55:05;;;;;;;43.73;29.00;;;3.60;99.90;;;;;;5013521;28;20482;-48
2021/01/01 03:57:32;;;;;;;41.63;26.97;;;3.70;99.90;;;;;;5010747;28;20892;-47
2021/01/01 04:00:04;;;;;;;47.33;30.30;;;3.80;99.90;;;;;;5011443;28;20482;-48
2021/01/01 04:02:38;;;;;;;49.33;31.30;;;3.60;99.90;;;;;;5010317;28;20538;-47
2021/01/01 04:05:08;;;;;;;52.80;31.53;;;4.10;99.90;;;;;;5011771;28;20510;-47
2021/01/01 04:07:36;;;;;;;50.93;31.67;;;4.10;99.90;;;;;;5010871;28;20534;-48
2021/01/01 04:10:05;;;;;;;53.67;30.77;;;4.00;99.90;;;;;;5012429;28;20511;-48
2021/01/01 04:12:33;;;;;;;53.63;31.30;;;4.10;99.90;;;;;;5011106;28;20834;-48
2021/01/01 04:15:00;;;;;;;52.57;33.73;;;4.20;99.90;;;;;;5011438;28;20480;-48
2021/01/01 04:17:28;;;;;;;54.90;33.87;;;4.10;99.90;;;;;;5010791;28;20502;-47
2021/01/01 04:19:55;;;;;;;48.07;32.13;;;4.00;99.90;;;;;;5013605;28;20499;-48
2021/01/01 04:22:23;;;;;;;46.70;29.57;;;4.00;99.90;;;;;;5009858;28;20572;-47
2021/01/01 04:24:50;;;;;;;50.00;30.07;;;4.10;99.90;;;;;;5010979;28;20511;-48
2021/01/01 04:27:18;;;;;;;48.50;30.73;;;4.10;99.90;;;;;;5010558;28;20547;-48
2021/01/01 04:29:45;;;;;;;52.93;33.83;;;4.00;99.90;;;;;;5007321;28;20532;-48
2021/01/01 04:32:12;;;;;;;51.13;33.23;;;3.80;99.90;;;;;;5005631;28;21012;-48
2021/01/01 04:34:39;;;;;;;47.53;31.93;;;3.80;99.90;;;;;;5024255;28;20562;-48
2021/01/01 04:37:07;;;;;;;43.67;30.57;;;3.70;99.90;;;;;;5030626;28;21029;-48
2021/01/01 04:39:35;;;;;;;45.10;29.70;;;3.60;99.90;;;;;;5015447;28;20480;-47
2021/01/01 04:42:04;;;;;;;48.27;30.63;;;3.80;99.90;;;;;;5009744;28;20972;-48
2021/01/01 04:44:31;;;;;;;58.77;34.60;;;4.00;99.90;;;;;;5010811;28;20487;-47
2021/01/01 04:47:03;;;;;;;53.77;33.37;;;4.20;99.90;;;;;;5010627;28;20483;-49
2021/01/01 04:49:32;;;;;;;59.80;36.03;;;4.40;99.90;;;;;;5010292;28;20549;-48
2021/01/01 04:52:03;;;;;;;56.13;35.43;;;4.20;99.90;;;;;;5009861;28;20486;-47
2021/01/01 04:54:33;;;;;;;58.67;33.73;;;4.30;99.90;;;;;;5010310;28;20486;-48
2021/01/01 04:57:02;;;;;;;54.23;34.70;;;4.20;99.90;;;;;;5010442;28;20500;-47
2021/01/01 04:59:29;;;;;;;62.50;37.17;;;4.20;99.90;;;;;;5010613;28;20472;-48
2021/01/01 05:01:56;;;;;;;56.63;36.23;;;4.10;99.90;;;;;;5008917;28;20484;-48
2021/01/01 05:04:24;;;;;;;52.27;33.13;;;4.00;99.90;;;;;;5010169;28;20579;-47
2021/01/01 05:06:51;;;;;;;59.00;35.43;;;4.10;99.90;;;;;;5009989;28;20493;-47
2021/01/01 05:09:18;;;;;;;59.47;35.40;;;4.20;99.90;;;;;;5009835;28;21074;-48
2021/01/01 05:11:45;;;;;;;59.60;37.40;;;4.10;99.90;;;;;;5009168;28;20487;-47
2021/01/01 05:14:14;;;;;;;52.07;34.13;;;4.00;99.90;;;;;;5009692;28;20952;-47
2021/01/01 05:16:51;;;;;;;51.87;34.53;;;3.70;99.90;;;;;;5009236;28;20511;-47
2021/01/01 05:19:19;;;;;;;51.63;32.93;;;3.80;99.90;;;;;;5009700;28;20637;-47
2021/01/01 05:21:46;;;;;;;51.33;34.13;;;3.90;99.90;;;;;;5008911;28;20572;-48
2021/01/01 05:24:16;;;;;;;49.80;31.10;;;3.80;99.90;;;;;;5009679;28;20843;-47
2021/01/01 05:26:48;;;;;;;53.33;34.40;;;3.90;99.90;;;;;;5013810;28;20873;-47
2021/01/01 05:29:22;;;;;;;51.10;31.83;;;3.70;99.90;;;;;;5010482;28;20622;-48
2021/01/01 05:31:51;;;;;;;52.67;31.30;;;3.90;99.90;;;;;;5010306;28;20837;-47
2021/01/01 05:34:23;;;;;;;56.97;34.13;;;3.90;99.90;;;;;;5029143;28;20517;-48
2021/01/01 05:36:52;;;;;;;60.33;36.57;;;3.70;99.90;;;;;;5016495;28;20541;-47
2021/01/01 05:39:23;;;;;;;56.67;34.20;;;3.80;99.90;;;;;;5009784;28;20511;-47
2021/01/01 05:41:52;;;;;;;54.33;35.93;;;3.70;99.90;;;;;;5008908;28;20998;-47
2021/01/01 05:44:25;;;;;;;49.27;30.03;;;3.70;99.90;;;;;;5009551;28;20490;-47
2021/01/01 05:47:02;;;;;;;57.43;35.90;;;3.90;99.90;;;;;;5009277;28;20490;-47
2021/01/01 05:49:33;;;;;;;48.70;31.57;;;3.80;99.90;;;;;;5008804;28;20500;-48
2021/01/01 05:52:15;;;;;;;57.63;34.20;;;3.80;99.90;;;;;;5008423;28;20488;-47
2021/01/01 05:54:45;;;;;;;66.00;35.63;;;3.90;99.90;;;;;;5011629;28;20850;-48
2021/01/01 05:57:14;;;;;;;56.13;33.47;;;3.90;99.90;;;;;;5008968;28;20978;-47
2021/01/01 05:59:45;;;;;;;63.90;35.63;;;4.10;99.90;;;;;;5008989;28;20825;-48
2021/01/01 06:02:14;;;;;;;55.93;36.57;;;4.10;99.90;;;;;;5008176;28;20476;-47
2021/01/01 06:04:42;;;;;;;51.97;34.20;;;3.80;99.90;;;;;;5011639;28;20551;-48
2021/01/01 06:07:11;;;;;;;49.40;31.40;;;3.60;99.90;;;;;;5008839;28;21055;-47
2021/01/01 06:09:40;;;;;;;52.10;32.13;;;3.50;99.90;;;;;;5008462;28;20495;-48
2021/01/01 06:12:13;;;;;;;49.73;30.97;;;3.50;99.90;;;;;;5008671;28;20490;-47
2021/01/01 06:14:43;;;;;;;42.83;26.50;;;3.60;99.90;;;;;;5008923;28;20538;-47
2021/01/01 06:17:21;;;;;;;46.97;28.97;;;3.70;99.90;;;;;;5008849;28;20486;-47
2021/01/01 06:19:52;;;;;;;53.00;33.40;;;3.60;99.90;;;;;;5007934;28;21050;-47
2021/01/01 06:22:21;;;;;;;51.30;32.83;;;3.90;99.90;;;;;;5008488;28;21092;-48
2021/01/01 06:24:52;;;;;;;50.50;32.43;;;4.00;99.90;;;;;;5007776;28;20568;-47
2021/01/01 06:27:21;;;;;;;42.47;28.80;;;3.90;99.90;;;;;;5014023;28;20489;-47
2021/01/01 06:29:53;;;;;;;46.53;29.53;;;3.70;99.90;;;;;;5008757;28;20532;-47
2021/01/01 06:32:21;;;;;;;37.43;25.57;;;3.50;99.90;;;;;;5019976;28;20519;-47
2021/01/01 06:34:50;;;;;;;47.30;30.13;;;3.60;99.90;;;;;;5012802;28;20478;-48
2021/01/01 06:37:38;;;;;;;47.87;30.70;;;3.60;99.90;;;;;;5008187;28;21001;-47
2021/01/01 06:40:31;;;;;;;47.40;31.33;;;3.90;99.90;;;;;;5008518;28;20892;-47
2021/01/01 06:43:00;;;;;;;48.87;30.77;;;3.80;99.90;;;;;;5008516;28;20576;-47
2021/01/01 06:45:39;;;;;;;43.87;28.30;;;4.10;99.90;;;;;;5007616;28;20465;-47
2021/01/01 06:48:09;;;;;;;45.20;27.97;;;4.30;99.90;;;;;;5006277;28;20472;-48
2021/01/01 06:50:38;;;;;;;49.97;30.57;;;4.10;99.90;;;;;;5006956;28;20474;-47
2021/01/01 06:53:08;;;;;;;48.17;29.50;;;4.00;99.90;;;;;;5006815;28;20973;-47
2021/01/01 06:55:37;;;;;;;52.13;32.57;;;4.20;99.90;;;;;;5006959;28;20572;-48
2021/01/01 06:58:05;;;;;;;48.03;32.50;;;4.10;99.90;;;;;;5006823;28;20464;-47
2021/01/01 07:00:56;;;;;;;47.23;30.50;;;3.90;99.90;;;;;;5005929;28;20744;-48
2021/01/01 07:03:37;;;;;;;40.23;28.57;;;3.70;99.90;;;;;;5006722;28;20532;-48
2021/01/01 07:06:36;;;;;;;42.17;26.87;;;3.60;99.90;;;;;;5006934;28;20539;-49
2021/01/01 07:09:12;;;;;;;43.67;29.20;;;3.60;99.90;;;;;;5005676;28;20527;-47
2021/01/01 07:11:45;;;;;;;39.33;26.90;;;3.60;99.90;;;;;;5005619;28;20562;-47
2021/01/01 07:14:19;;;;;;;39.60;26.87;;;3.50;99.90;;;;;;5006633;28;20476;-48
2021/01/01 07:16:50;;;;;;;40.37;28.07;;;3.60;99.90;;;;;;5005870;28;21057;-47
2021/01/01 07:19:18;;;;;;;42.80;27.20;;;3.50;99.90;;;;;;5006267;28;20537;-47
2021/01/01 07:21:45;;;;;;;40.43;27.37;;;3.50;99.90;;;;;;5003099;28;21257;-48
2021/01/01 07:24:12;;;;;;;43.07;26.80;;;3.40;99.90;;;;;;5012401;28;20483;-48
2021/01/01 07:26:40;;;;;;;38.50;25.73;;;3.40;99.90;;;;;;5012674;28;20496;-48
2021/01/01 07:29:07;;;;;;;36.70;25.37;;;3.50;99.90;;;;;;5025301;28;20524;-48
2021/01/01 07:31:34;;;;;;;38.50;25.93;;;3.50;99.90;;;;;;5013816;28;20506;-47
2021/01/01 07:34:11;;;;;;;39.73;24.40;;;3.60;99.90;;;;;;5005915;28;20886;-48
2021/01/01 07:36:38;;;;;;;39.67;26.57;;;3.60;99.90;;;;;;5009027;28;20845;-48
2021/01/01 07:39:07;;;;;;;40.53;26.17;;;3.60;99.90;;;;;;5006408;28;20552;-48
2021/01/01 07:41:35;;;;;;;45.63;28.90;;;3.60;99.90;;;;;;5005875;28;20468;-47
2021/01/01 07:44:03;;;;;;;42.23;28.10;;;3.60;99.90;;;;;;5006546;28;20576;-47
2021/01/01 07:46:33;;;;;;;42.13;26.13;;;3.60;99.90;;;;;;5005755;28;20996;-47
2021/01/01 07:49:02;;;;;;;38.80;26.07;;;3.50;99.90;;;;;;5006345;28;20489;-48
2021/01/01 07:51:31;;;;;;;38.53;25.17;;;3.50;99.90;;;;;;5005663;28;20482;-48
2021/01/01 07:54:15;;;;;;;36.90;23.67;;;3.60;99.90;;;;;;5006460;28;20479;-47
2021/01/01 07:56:42;;;;;;;38.23;24.23;;;3.50;99.90;;;;;;5006349;28;20481;-48
2021/01/01 07:59:10;;;;;;;37.33;24.73;;;3.50;99.90;;;;;;5009037;28;21022;-49
2021/01/01 08:01:37;;;;;;;35.27;24.07;;;3.50;99.90;;;;;;5008449;28;20501;-48
2021/01/01 08:04:13;;;;;;;37.70;24.70;;;3.50;99.90;;;;;;5007694;28;20612;-47
2021/01/01 08:06:42;;;;;;;32.30;23.03;;;3.50;99.90;;;;;;5007023;28;20994;-48
2021/01/01 08:09:10;;;;;;;38.90;24.90;;;3.50;99.90;;;;;;5007452;28;20568;-48
2021/01/01 08:11:37;;;;;;;39.97;25.27;;;3.50;99.90;;;;;;5007270;28;20902;-48
2021/01/01 08:14:06;;;;;;;37.80;24.47;;;3.50;99.90;;;;;;5007637;28;20519;-48
2021/01/01 08:16:33;;;;;;;38.90;24.70;;;3.50;99.90;;;;;;5007408;28;20504;-47
2021/01/01 08:19:00;;;;;;;37.20;24.90;;;3.50;99.90;;;;;;5008870;28;20669;-47
2021/01/01 08:21:28;;;;;;;37.07;24.60;;;3.50;99.90;;;;;;5013494;28;20563;-47
2021/01/01 08:24:03;;;;;;;37.30;24.40;;;3.50;99.90;;;;;;5014312;28;20489;-48
2021/01/01 08:26:35;;;;;;;43.13;27.10;;;3.50;99.90;;;;;;5015929;28;20476;-47
2021/01/01 08:29:03;;;;;;;47.73;28.07;;;3.80;99.90;;;;;;5029705;28;20509;-47
2021/01/01 08:31:31;;;;;;;42.47;28.40;;;3.70;99.90;;;;;;5000889;28;20534;-49
2021/01/01 08:33:58;;;;;;;43.37;27.77;;;3.80;99.90;;;;;;5017997;28;20575;-48
2021/01/01 08:36:34;;;;;;;40.33;25.93;;;3.70;99.90;;;;;;5029553;28;20568;-47
2021/01/01 08:39:11;;;;;;;41.07;27.47;;;3.70;99.90;;;;;;5018180;28;20529;-47
2021/01/01 08:41:44;;;;;;;39.63;26.97;;;3.80;99.90;;;;;;4990610;28;21034;-48
2021/01/01 08:44:14;;;;;;;39.90;26.43;;;3.80;99.90;;;;;;4990517;28;20576;-49
2021/01/01 08:46:42;;;;;;;43.27;28.17;;;3.90;99.90;;;;;;4990412;28;20533;-48
2021/01/01 08:49:17;;;;;;;41.50;27.50;;;3.90;99.90;;;;;;4990991;28;20571;-48
2021/01/01 08:51:46;;;;;;;41.47;29.37;;;4.00;99.90;;;;;;5002355;28;20509;-47
2021/01/01 08:54:24;;;;;;;45.77;30.23;;;4.00;99.90;;;;;;5009920;28;20503;-48
2021/01/01 08:57:00;;;;;;;43.00;28.93;;;3.90;99.90;;;;;;5010156;28;20480;-48
2021/01/01 08:59:29;;;;;;;40.17;28.47;;;3.80;99.90;;;;;;5008943;28;20488;-47
2021/01/01 09:01:59;;;;;;;39.97;27.57;;;3.80;99.90;;;;;;5009171;28;20484;-48
2021/01/01 09:04:28;;;;;;;37.90;26.80;;;3.80;99.90;;;;;;5009132;28;20483;-47
2021/01/01 09:06:58;;;;;;;35.83;25.73;;;3.90;99.90;;;;;;4998179;28;21080;-47
2021/01/01 09:09:31;;;;;;;41.97;27.13;;;3.80;99.90;;;;;;4990348;28;20544;-47
2021/01/01 09:12:19;;;;;;;40.60;27.10;;;3.90;99.90;;;;;;4989150;28;20488;-48
2021/01/01 09:14:49;;;;;;;40.27;27.23;;;3.90;99.90;;;;;;4994653;28;20488;-48
2021/01/01 09:17:19;;;;;;;39.87;27.87;;;3.90;99.90;;;;;;4998684;28;20530;-47
2021/01/01 09:19:47;;;;;;;39.03;26.50;;;3.90;99.90;;;;;;5011689;28;20515;-48
2021/01/01 09:22:18;;;;;;;39.13;26.83;;;3.90;99.90;;;;;;5017813;28;20561;-48
2021/01/01 09:24:48;;;;;;;38.93;26.07;;;4.00;99.90;;;;;;5025056;28;20481;-47
2021/01/01 09:27:15;;;;;;;43.03;27.90;;;4.10;99.90;;;;;;5012558;28;21080;-48
2021/01/01 09:29:43;;;;;;;44.87;28.17;;;4.10;99.90;;;;;;4994027;28;20481;-48
2021/01/01 09:32:12;;;;;;;46.23;27.27;;;4.10;99.90;;;;;;4999063;28;20470;-47
2021/01/01 09:34:40;;;;;;;39.93;26.87;;;4.10;99.90;;;;;;5008147;28;20565;-47
2021/01/01 09:37:10;;;;;;;38.63;27.23;;;4.20;99.90;;;;;;5009555;28;21052;-48
2021/01/01 09:39:38;;;;;;;42.97;28.03;;;4.10;99.90;;;;;;5009602;28;20487;-48
2021/01/01 09:42:07;;;;;;;38.10;26.10;;;4.30;99.90;;;;;;4999620;28;20482;-48
2021/01/01 09:44:34;;;;;;;40.20;25.90;;;4.30;99.90;;;;;;4994816;28;20533;-48
2021/01/01 09:47:02;;;;;;;38.87;25.37;;;4.20;99.90;;;;;;4989978;28;20809;-48
2021/01/01 09:49:30;;;;;;;38.00;26.37;;;4.30;99.90;;;;;;4987754;28;20513;-47
2021/01/01 09:51:57;;;;;;;39.90;26.33;;;4.40;99.90;;;;;;4998161;28;20542;-48
2021/01/01 09:54:39;;;;;;;37.07;25.00;;;4.30;99.90;;;;;;4998506;28;20487;-47
2021/01/01 09:57:08;;;;;;;36.40;25.43;;;4.40;99.90;;;;;;5005899;28;20924;-48
2021/01/01 09:59:35;;;;;;;41.30;26.97;;;4.40;99.90;;;;;;5001694;28;20469;-48
2021/01/01 10:02:02;;;;;;;39.43;26.00;;;4.40;99.90;;;;;;5002391;28;20573;-48
2021/01/01 10:04:29;;;;;;;41.37;26.83;;;4.40;99.90;;;;;;4998276;28;20525;-48
2021/01/01 10:06:57;;;;;;;38.53;26.53;;;4.40;99.90;;;;;;5006399;28;20510;-48
2021/01/01 10:09:24;;;;;;;44.07;26.30;;;4.30;99.90;;;;;;4996081;28;20479;-47
2021/01/01 10:11:52;;;;;;;40.70;27.40;;;4.40;99.90;;;;;;5003601;28;20479;-50
2021/01/01 10:14:20;;;;;;;40.87;26.60;;;4.30;99.90;;;;;;5006307;28;20486;-48
2021/01/01 10:16:48;;;;;;;42.40;27.03;;;4.40;99.90;;;;;;5003125;28;21137;-49
2021/01/01 10:19:16;;;;;;;37.30;25.20;;;4.40;99.90;;;;;;5009095;28;20568;-52
2021/01/01 10:21:45;;;;;;;39.23;26.30;;;4.40;99.90;;;;;;5010797;28;21648;-48
2021/01/01 10:24:12;;;;;;;41.37;26.10;;;4.40;99.90;;;;;;5003391;28;20484;-48
2021/01/01 10:26:39;;;;;;;35.60;25.47;;;4.40;99.90;;;;;;5002910;28;20575;-49
2021/01/01 10:29:21;;;;;;;39.67;26.60;;;4.30;99.90;;;;;;5007378;28;20843;-50
2021/01/01 10:31:49;;;;;;;41.13;27.67;;;4.40;99.90;;;;;;5007360;28;20511;-48
2021/01/01 10:34:17;;;;;;;41.70;25.87;;;4.40;99.90;;;;;;5006877;28;20503;-48
2021/01/01 10:36:44;;;;;;;38.43;25.80;;;4.40;99.90;;;;;;5007841;28;20482;-47
2021/01/01 10:39:32;;;;;;;39.37;25.80;;;4.40;99.90;;;;;;5005150;28;21083;-48
2021/01/01 10:41:59;;;;;;;39.10;25.37;;;4.40;99.90;;;;;;5007884;28;20537;-47
2021/01/01 10:44:27;;;;;;;34.97;24.03;;;4.40;99.90;;;;;;4998320;28;20531;-48
2021/01/01 10:46:55;;;;;;;37.13;24.70;;;4.40;99.90;;;;;;5008595;28;20508;-47
2021/01/01 10:49:23;;;;;;;41.37;26.73;;;4.40;99.90;;;;;;5015774;28;20582;-48
2021/01/01 10:51:50;;;;;;;34.60;24.17;;;4.40;99.90;;;;;;5007594;28;21068;-48
2021/01/01 10:54:18;;;;;;;39.33;26.07;;;4.40;99.90;;;;;;5019377;28;21015;-47
2021/01/01 10:56:46;;;;;;;36.67;24.20;;;4.40;99.90;;;;;;5010682;28;20555;-47
2021/01/01 10:59:34;;;;;;;38.60;25.83;;;4.50;99.90;;;;;;5006068;28;20495;-48
2021/01/01 11:02:02;;;;;;;44.90;26.63;;;4.60;99.90;;;;;;5005754;28;20494;-47
2021/01/01 11:04:32;;;;;;;47.43;30.73;;;4.50;99.90;;;;;;5005443;28;20646;-47
2021/01/01 11:07:00;;;;;;;46.03;29.60;;;4.50;99.90;;;;;;5004492;28;20571;-48
2021/01/01 11:09:30;;;;;;;44.83;27.33;;;4.50;99.90;;;;;;5006185;28;20559;-48
2021/01/01 11:11:59;;;;;;;42.50;27.97;;;4.60;99.90;;;;;;4998780;28;20506;-47
2021/01/01 11:14:41;;;;;;;47.00;27.90;;;4.60;99.90;;;;;;5001554;28;20479;-47
2021/01/01 12:21:46;;;;;;;37.30;26.23;;;5.10;99.90;;;;;;5003022;28;20479;-48
2021/01/01 12:24:26;;;;;;;34.70;24.77;;;5.10;99.90;;;;;;5010277;28;20503;-48
2021/01/01 12:26:54;;;;;;;36.90;23.27;;;5.10;99.90;;;;;;5010458;28;20545;-48
2021/01/01 12:29:27;;;;;;;39.87;26.07;;;5.30;99.90;;;;;;5010567;28;20565;-48
2021/01/01 12:31:56;;;;;;;42.07;28.67;;;5.40;99.90;;;;;;5009487;28;20844;-48
2021/01/01 12:34:30;;;;;;;38.87;26.30;;;5.50;99.90;;;;;;5012824;28;20525;-48
2021/01/01 12:36:57;;;;;;;38.97;26.47;;;5.60;99.90;;;;;;5010415;28;20575;-48
2021/01/01 12:39:25;;;;;;;34.77;23.63;;;5.50;99.90;;;;;;5009556;28;21341;-48
2021/01/01 12:41:53;;;;;;;35.80;24.27;;;5.50;99.90;;;;;;5009495;28;20517;-48
2021/01/01 12:44:20;;;;;;;33.13;24.00;;;5.50;99.90;;;;;;5007363;28;20482;-48
2021/01/01 12:46:47;;;;;;;37.03;24.13;;;5.50;99.90;;;;;;5009570;28;21098;-49
2021/01/01 12:49:15;;;;;;;36.33;23.87;;;5.40;99.90;;;;;;5007969;28;20977;-48
2021/01/01 12:51:42;;;;;;;37.27;25.40;;;5.40;99.90;;;;;;5009904;28;20490;-48
2021/01/01 12:54:10;;;;;;;29.60;21.70;;;5.40;99.90;;;;;;5009970;28;20836;-49
2021/01/01 12:56:38;;;;;;;32.73;22.30;;;5.30;99.90;;;;;;5007603;28;20844;-49
2021/01/01 12:59:06;;;;;;;31.53;21.30;;;5.20;99.90;;;;;;5009039;28;20598;-49
2021/01/01 13:01:34;;;;;;;31.03;21.17;;;5.10;99.90;;;;;;5007648;28;20581;-48
2021/01/01 13:04:02;;;;;;;31.50;22.97;;;5.10;99.90;;;;;;5002304;28;20496;-50
2021/01/01 13:06:29;;;;;;;32.97;23.83;;;5.10;99.90;;;;;;4993415;28;20858;-48
2021/01/01 13:08:57;;;;;;;35.10;23.57;;;5.00;99.90;;;;;;4994063;28;20483;-48
2021/01/01 13:11:43;;;;;;;36.23;24.90;;;4.90;99.90;;;;;;4995803;28;20928;-48
2021/01/01 13:14:10;;;;;;;35.23;23.00;;;4.80;99.90;;;;;;4998098;28;20908;-49
2021/01/01 13:16:38;;;;;;;43.33;29.13;;;4.80;99.90;;;;;;4995859;28;20494;-51
2021/01/01 13:19:05;;;;;;;41.07;27.07;;;4.70;99.90;;;;;;4997550;28;20975;-49
2021/01/01 13:21:34;;;;;;;38.77;27.07;;;4.70;99.90;;;;;;4997291;28;20847;-48
2021/01/01 13:24:12;;;;;;;48.83;30.90;;;4.70;99.90;;;;;;1988819;28;10023938;-48
2021/01/01 13:26:39;;;;;;;44.07;29.50;;;4.70;99.90;;;;;;4307517;28;10001403;-50
2021/01/01 13:29:07;;;;;;;47.37;30.67;;;4.70;99.90;;;;;;4993524;28;20494;-49
2021/01/01 13:31:37;;;;;;;48.97;31.73;;;4.70;99.90;;;;;;4993052;28;20567;-48
2021/01/01 13:34:06;;;;;;;58.23;35.33;;;4.60;99.90;;;;;;4994125;28;20976;-49
2021/01/01 13:36:34;;;;;;;55.37;33.43;;;4.70;99.90;;;;;;4994849;28;20484;-48
2021/01/01 13:39:02;;;;;;;51.40;31.17;;;4.60;99.90;;;;;;4998076;28;20692;-48
2021/01/01 13:41:31;;;;;;;50.93;31.60;;;4.60;99.90;;;;;;4996797;28;20530;-50
2021/01/01 13:43:58;;;;;;;44.57;29.60;;;4.60;99.90;;;;;;4995933;28;20493;-49
2021/01/01 13:46:29;;;;;;;46.83;30.27;;;4.60;99.90;;;;;;4993345;28;20600;-48
2021/01/01 13:48:57;;;;;;;41.83;28.47;;;4.50;99.90;;;;;;4997232;28;20605;-49
2021/01/01 13:51:29;;;;;;;41.23;26.27;;;4.60;99.90;;;;;;5012318;28;20483;-48